Pagrindinis puslapis
METAR-TAF:

METAR-TAF

Oro uostai :

Tumbes, Peru

platuma: 03-33S, ilguma: 080-24W, Aukštis: 25 m

Dabartinis oras

Ataskaita buvo paskelbta 26 minutes, ne 22:00 UTC
Vėjas 7 kt iš Šiaurės/Šiaurės Vakarų
Temperatūra 26°C
Drėgmė 79%
Slėgis 1009 hPa
Matomumas 10 km arba daugiau
Apsiniaukę ne aukštis 1500 ft

METAR: SPME 252200Z 33007KT 9999 OVC015 26/22 Q1009 RMK BIRD HAZARD RWY 32/14 PP000

Laikas: 17:26 (22:26 UTC)

Prognozė

Ataskaita buvo paskelbta 5 valandos ir 56 minutes, ne 16:30 UTC
Prognozė galioja nuo 25 metu 18 UTC su 26 metu 18 UTC
Vėjas 10 kt iš Šiaurės/Šiaurės Vakarų
Matomumas 10 km arba daugiau
Su prošvaistėmis ne aukštis 1800 ft
Tapsmas
nuo 25 metu 22 UTC su 26 metu 01 UTC
Su prošvaistėmis ne aukštis 1500 ft
Laikinai
nuo 26 metu 12 UTC su 26 metu 15 UTC
Apsiniaukę ne aukštis 1200 ft

TAF: SPME 251630Z 2518/2618 33010KT 9999 BKN018 TX30/2519Z TN23/2611Z BECMG 2522/2601 BKN015 TEMPO 2612/2615 OVC012

Orai ataskaitas ir orų prognozės (METAR, TAF).

turimą stotys yra geltonos ir raudonos taškus žemėlapyje.

Perkelti pele per norėdami pamatyti stoties vardą.

Tada spustelėkite, norėdami matyti oro stebėjimo ir prognozės.

Norėdami pakeisti žemėlapį: spustelėkite ant žalios mygtukų su juodo kryžiaus žemyn,; žalią mygtuką su brūkšneliu, jei norite nutolinti; arba žalių rodyklių gretimoms žemėlapius.


METAR-TAF: